Airfield :
LOGIN :

Register | Disclaimer

   EN    FR    IT 

 










Legend :    VFR   Marginal VFR   IFR   Intensive IFR   Very Intensive IFR
Visi :
Ceiling :
>= 8 km
>= 3000ft
5 to 8 km
1000 to 3000 ft
1500m to 5 km
500 to 1000 ft
800 to 1500m
200 to 500 ft
< 800m
< 200 ft
Symbols :   Thunderstorms  Fog  Heavy snow  Heavy precipitations  Wind > 20 kt
SIGMETs :     Misc.  Thunderstorms  Icing  Turbulence  Mountain Waves  Volcanic Ashes






- Airport Elevation : 781 ft
- IATA code : SKP


LWSK - Skopje

CURRENT METAR :
  • 111730Z 17002KT 9999 FEW040 32/14 Q1012 NOSIG

EXPIRED METARs :
  • 111700Z 18003KT 9999 FEW040 33/13 Q1011 NOSIG
  • 111630Z 21002KT 9999 FEW040 34/13 Q1011 NOSIG
  • 111600Z VRB02KT 9999 FEW040 34/12 Q1011 NOSIG
  • 111530Z VRB02KT 9999 FEW040 35/12 Q1012 NOSIG
  • 111500Z 21004KT 9999 FEW040 34/12 Q1012 NOSIG

TAF COR TAF LWSK
Valid from the 11 at 15:00 until the 12 at 15:00 UTC


111430Z 1115/1215 16006KT 9999 FEW040
PROB30
TEMPO 1115/1119 VRB15KT TSRA SCT035CB SCT040



MET'MAP, your aeronautical weather chart ! - Copyright ORBIFLY December 2007 - Disclaimer

ORBIFLY MET'MAP TEAM :

Programming & Development : Alexandra Zaïnal
Concept & original design : Baudouin d'Aumeries
Assistance for programming : Marc-Olivier Méhu
Technical & hardware support : Manuel Goepfert

Contact : metmap@orbifly.com




SOURCES & CREDITS :

   NOAA